Time;durP1;ratioP1;P1;durP2;ratioP2;P2;SDS_P1;SDS_P2;PMS_P1;PMS_P2;Temp;Humidity;BMP_temperature;BMP_pressure;BME280_temperature;BME280_humidity;BME280_pressure;Samples;Min_cycle;Max_cycle;Signal;HPM_P1;HPM_P2
2021/05/13 00:00:44;;;;;;;6.28;4.32;;;13.80;99.90;;;;;;4899633;29;20028;-81
2021/05/13 00:03:09;;;;;;;1.45;1.35;;;13.90;99.90;;;;;;4916395;29;20126;-81
2021/05/13 00:05:35;;;;;;;0.93;0.88;;;13.90;99.90;;;;;;4899412;29;20036;-81
2021/05/13 00:08:01;;;;;;;0.50;0.50;;;13.90;99.90;;;;;;4899476;29;20024;-81
2021/05/13 00:10:28;;;;;;;0.70;0.70;;;13.90;99.90;;;;;;4916588;29;20107;-81
2021/05/13 00:13:05;;;;;;;0.47;0.47;;;13.90;99.90;;;;;;4916145;29;20285;-81
2021/05/13 00:15:35;;;;;;;0.80;0.80;;;13.90;99.90;;;;;;4899218;29;20067;-81
2021/05/13 00:18:00;;;;;;;1.55;0.70;;;13.90;99.90;;;;;;4916367;29;20115;-81
2021/05/13 00:20:32;;;;;;;0.95;0.68;;;13.80;99.90;;;;;;4915957;29;20492;-81
2021/05/13 00:22:58;;;;;;;0.82;0.82;;;13.80;99.90;;;;;;4899087;29;20123;-81
2021/05/13 00:25:25;;;;;;;0.85;0.77;;;13.80;99.90;;;;;;4916029;29;20099;-81
2021/05/13 00:27:52;;;;;;;0.57;0.57;;;13.80;99.90;;;;;;4916130;29;20047;-81
2021/05/13 00:30:19;;;;;;;0.50;0.50;;;13.80;99.90;;;;;;4915882;29;20055;-81
2021/05/13 00:32:45;;;;;;;0.73;0.43;;;13.80;99.90;;;;;;4898991;29;20020;-81
2021/05/13 00:35:15;;;;;;;0.77;0.77;;;13.80;99.90;;;;;;4898914;29;20032;-81
2021/05/13 00:37:42;;;;;;;0.90;0.68;;;13.70;99.90;;;;;;4915997;29;20542;-81
2021/05/13 00:40:09;;;;;;;0.80;0.80;;;13.70;99.90;;;;;;4898291;29;20024;-82
2021/05/13 00:42:36;;;;;;;0.50;0.50;;;13.60;99.90;;;;;;4898726;29;20491;-82
2021/05/13 00:45:03;;;;;;;3.33;0.60;;;13.60;99.90;;;;;;4898803;29;20024;-82
2021/05/13 00:47:29;;;;;;;3.08;0.63;;;13.70;99.90;;;;;;4915644;29;20372;-82
2021/05/13 00:49:55;;;;;;;2.20;0.60;;;13.60;99.90;;;;;;4898525;29;20035;-82
2021/05/13 00:52:23;;;;;;;0.55;0.55;;;13.60;99.90;;;;;;4898690;29;20028;-82
2021/05/13 00:54:49;;;;;;;0.60;0.60;;;13.70;99.90;;;;;;4915568;29;20036;-82
2021/05/13 00:57:15;;;;;;;0.70;0.70;;;13.70;99.90;;;;;;4898347;29;20028;-82
2021/05/13 00:59:45;;;;;;;0.60;0.60;;;13.70;99.90;;;;;;4915356;29;20032;-81
2021/05/13 01:02:13;;;;;;;0.50;0.50;;;13.70;99.90;;;;;;4915405;29;20392;-81
2021/05/13 01:04:39;;;;;;;0.50;0.50;;;13.70;99.90;;;;;;4898293;29;20045;-81
2021/05/13 01:07:05;;;;;;;0.50;0.50;;;13.70;99.90;;;;;;4915341;29;20016;-81
2021/05/13 01:09:32;;;;;;;2.60;0.65;;;13.70;99.90;;;;;;4915317;29;20040;-82
2021/05/13 01:12:04;;;;;;;1.45;0.60;;;13.70;99.90;;;;;;4915281;29;20020;-82
2021/05/13 01:17:54;;;;;;;0.60;0.60;;;13.70;99.90;;;;;;4896292;29;20036;-81
2021/05/13 01:19:55;;;;;;;0.52;0.52;;;13.70;99.90;;;;;;4885831;29;20543;-82
2021/05/13 01:22:23;;;;;;;0.65;0.65;;;13.70;99.90;;;;;;4879440;29;20029;-82
2021/05/13 01:24:49;;;;;;;0.43;0.43;;;13.60;99.90;;;;;;4896229;29;20029;-82
2021/05/13 01:27:15;;;;;;;0.60;0.50;;;13.60;99.90;;;;;;4879131;29;20075;-82
2021/05/13 01:29:46;;;;;;;0.60;0.60;;;13.60;99.90;;;;;;4879238;29;20052;-81
2021/05/13 01:32:15;;;;;;;0.85;0.70;;;13.60;99.90;;;;;;4895973;29;20563;-82
2021/05/13 01:34:42;;;;;;;0.82;0.60;;;13.60;99.90;;;;;;4879267;29;20032;-82
2021/05/13 01:37:08;;;;;;;0.47;0.47;;;13.60;99.90;;;;;;4896089;29;20153;-82
2021/05/13 01:39:34;;;;;;;1.02;0.50;;;13.60;99.90;;;;;;4878938;29;20571;-82
2021/05/13 01:41:59;;;;;;;0.55;0.55;;;13.60;99.90;;;;;;4896129;29;20029;-82
2021/05/13 01:44:25;;;;;;;0.50;0.50;;;13.60;99.90;;;;;;4900474;29;20028;-82
2021/05/13 01:46:51;;;;;;;0.43;0.43;;;13.60;99.90;;;;;;4914750;29;20035;-82
2021/05/13 01:49:22;;;;;;;0.88;0.88;;;13.50;99.90;;;;;;4897772;29;20028;-81
2021/05/13 01:51:49;;;;;;;0.93;0.32;;;13.50;99.90;;;;;;4914091;29;20396;-82
2021/05/13 01:54:18;;;;;;;1.20;0.60;;;13.50;99.90;;;;;;4897548;29;20032;-81
2021/05/13 01:56:44;;;;;;;0.50;0.50;;;13.50;99.90;;;;;;4914622;29;20028;-82
2021/05/13 01:59:10;;;;;;;0.50;0.50;;;13.50;99.90;;;;;;4914496;29;20036;-81
2021/05/13 02:01:36;;;;;;;2.83;0.45;;;13.50;99.90;;;;;;4914725;29;20024;-81
2021/05/13 02:04:02;;;;;;;0.65;0.60;;;13.40;99.90;;;;;;4897300;29;20048;-82
2021/05/13 02:06:28;;;;;;;0.60;0.60;;;13.40;99.90;;;;;;4914548;29;20031;-82
2021/05/13 02:08:54;;;;;;;0.52;0.52;;;13.40;99.90;;;;;;4897601;29;20029;-82
2021/05/13 02:11:20;;;;;;;0.60;0.60;;;13.40;99.90;;;;;;4914509;29;20024;-82
2021/05/13 02:13:46;;;;;;;0.45;0.45;;;13.40;99.90;;;;;;4914488;29;20036;-82
2021/05/13 02:16:12;;;;;;;0.50;0.50;;;13.40;99.90;;;;;;4914570;29;20032;-82
2021/05/13 02:18:39;;;;;;;0.50;0.50;;;13.40;99.90;;;;;;4914369;29;20079;-82
2021/05/13 02:21:05;;;;;;;0.70;0.47;;;13.50;99.90;;;;;;4914416;29;20024;-82
2021/05/13 02:23:31;;;;;;;2.95;0.73;;;13.50;99.90;;;;;;4914277;29;20742;-82
2021/05/13 02:25:59;;;;;;;0.60;0.60;;;13.50;99.90;;;;;;4897138;29;20020;-82
2021/05/13 02:28:25;;;;;;;0.60;0.60;;;13.50;99.90;;;;;;4914346;29;20032;-82
2021/05/13 02:30:51;;;;;;;0.50;0.50;;;13.50;99.90;;;;;;4897530;29;20079;-82
2021/05/13 02:33:17;;;;;;;0.77;0.77;;;13.50;99.90;;;;;;4897335;29;20400;-82
2021/05/13 02:35:42;;;;;;;0.80;0.80;;;13.50;99.90;;;;;;4897252;29;20035;-81
2021/05/13 02:38:08;;;;;;;1.15;1.15;;;13.60;99.90;;;;;;4914419;29;20436;-82
2021/05/13 02:40:34;;;;;;;3.75;2.33;;;13.60;99.90;;;;;;4897261;29;20024;-82
2021/05/13 02:42:59;;;;;;;3.60;2.63;;;13.60;99.90;;;;;;4897236;29;20059;-82
2021/05/13 02:45:25;;;;;;;2.45;1.98;;;13.70;99.90;;;;;;4914229;29;20061;-81
2021/05/13 02:47:52;;;;;;;1.70;1.60;;;13.60;99.90;;;;;;4914063;29;20031;-82
2021/05/13 02:50:18;;;;;;;2.88;1.85;;;13.60;99.90;;;;;;4896986;29;20024;-82
2021/05/13 02:52:45;;;;;;;1.10;1.10;;;13.70;99.90;;;;;;4914278;29;20068;-82
2021/05/13 02:55:12;;;;;;;1.35;1.08;;;13.60;99.90;;;;;;4897049;29;20032;-82
2021/05/13 02:57:38;;;;;;;1.10;1.10;;;13.60;99.90;;;;;;4897162;29;20032;-82
2021/05/13 03:00:21;;;;;;;1.10;1.10;;;13.70;99.90;;;;;;4897191;29;20032;-81
2021/05/13 03:02:47;;;;;;;2.65;1.10;;;13.70;99.90;;;;;;4898622;29;20039;-82
2021/05/13 03:05:14;;;;;;;0.60;0.60;;;13.60;99.90;;;;;;4913290;29;20293;-82
2021/05/13 03:07:48;;;;;;;0.70;0.70;;;13.60;99.90;;;;;;4900558;29;20028;-82
2021/05/13 03:10:20;;;;;;;0.70;0.70;;;13.60;99.90;;;;;;4900396;29;20492;-82
2021/05/13 03:12:48;;;;;;;2.47;0.85;;;13.60;99.90;;;;;;4900290;29;20376;-82
2021/05/13 03:15:14;;;;;;;0.82;0.50;;;13.50;99.90;;;;;;4917345;29;20027;-82
2021/05/13 03:17:39;;;;;;;0.85;0.70;;;13.60;99.90;;;;;;4900348;29;20024;-81
2021/05/13 03:20:06;;;;;;;1.08;0.70;;;13.50;99.90;;;;;;4900129;29;20028;-81
2021/05/13 03:22:32;;;;;;;0.80;0.80;;;13.60;99.90;;;;;;4905696;29;20028;-81
2021/05/13 03:25:06;;;;;;;2.08;0.70;;;13.60;99.90;;;;;;4889596;29;20147;-81
2021/05/13 03:30:25;;;;;;;0.50;0.50;;;13.60;99.90;;;;;;4876731;29;20032;-81
2021/05/13 03:32:54;;;;;;;0.93;0.60;;;13.60;99.90;;;;;;4881301;29;20101;-82
2021/05/13 03:35:20;;;;;;;0.60;0.60;;;13.60;99.90;;;;;;4898237;29;20035;-81
2021/05/13 03:37:45;;;;;;;0.65;0.65;;;13.60;99.90;;;;;;4881085;29;20033;-82
2021/05/13 03:40:12;;;;;;;0.60;0.60;;;13.50;99.90;;;;;;4881090;29;20120;-82
2021/05/13 03:42:38;;;;;;;0.70;0.70;;;13.50;99.90;;;;;;4881260;29;20112;-81
2021/05/13 03:45:05;;;;;;;0.73;0.73;;;13.40;99.90;;;;;;4907627;29;20111;-81
2021/05/13 03:47:31;;;;;;;0.88;0.60;;;13.40;99.90;;;;;;4899649;29;20476;-81
2021/05/13 03:49:59;;;;;;;0.50;0.50;;;13.40;99.90;;;;;;4899861;29;20036;-81
2021/05/13 03:52:25;;;;;;;0.70;0.70;;;13.30;99.90;;;;;;4899874;29;20024;-81
2021/05/13 03:54:51;;;;;;;0.45;0.45;;;13.30;99.90;;;;;;4916647;29;20437;-81
2021/05/13 03:57:18;;;;;;;3.65;0.52;;;13.30;99.90;;;;;;4899654;29;20508;-82
2021/05/13 03:59:44;;;;;;;0.60;0.60;;;13.30;99.90;;;;;;4916612;29;20036;-82
2021/05/13 04:04:50;;;;;;;0.63;0.63;;;13.30;99.90;;;;;;4916367;29;20488;-81
2021/05/13 04:07:16;;;;;;;0.73;0.55;;;13.20;99.90;;;;;;4916411;29;20052;-81
2021/05/13 04:09:42;;;;;;;0.50;0.50;;;13.20;99.90;;;;;;4899310;29;20413;-81
2021/05/13 04:12:08;;;;;;;3.33;0.80;;;13.20;99.90;;;;;;4899392;29;20032;-81
2021/05/13 04:14:34;;;;;;;0.70;0.70;;;13.20;99.90;;;;;;4898667;29;20028;-81
2021/05/13 04:17:01;;;;;;;0.70;0.70;;;13.30;99.90;;;;;;4899591;29;20520;-81
2021/05/13 04:19:27;;;;;;;0.70;0.70;;;13.20;99.90;;;;;;4900066;29;20071;-81
2021/05/13 04:21:53;;;;;;;0.88;0.88;;;13.20;99.90;;;;;;4916654;29;20028;-81
2021/05/13 04:24:19;;;;;;;1.13;1.02;;;13.30;99.90;;;;;;4917043;29;20024;-81
2021/05/13 04:26:45;;;;;;;1.20;1.00;;;13.30;99.90;;;;;;4917244;29;20040;-81
2021/05/13 04:29:12;;;;;;;1.42;0.82;;;13.30;99.90;;;;;;4900566;29;20115;-81
2021/05/13 04:31:38;;;;;;;0.75;0.75;;;13.30;99.90;;;;;;4900294;29;20032;-81
2021/05/13 04:34:04;;;;;;;0.73;0.73;;;13.30;99.90;;;;;;4899093;29;20078;-80
2021/05/13 04:36:31;;;;;;;1.50;0.88;;;13.30;99.90;;;;;;4898967;29;20036;-80
2021/05/13 04:38:57;;;;;;;0.95;0.93;;;13.30;99.90;;;;;;4898600;29;20032;-81
2021/05/13 04:41:23;;;;;;;1.00;1.00;;;13.30;99.90;;;;;;4915912;29;20024;-81
2021/05/13 04:43:49;;;;;;;0.70;0.70;;;13.40;99.90;;;;;;4915760;29;20016;-80
2021/05/13 04:46:16;;;;;;;0.60;0.60;;;13.30;99.90;;;;;;4898699;29;20028;-81
2021/05/13 04:51:19;;;;;;;1.35;0.90;;;13.40;99.90;;;;;;4915434;29;20058;-81
2021/05/13 04:53:49;;;;;;;0.80;0.80;;;13.40;99.90;;;;;;4915423;29;20020;-81
2021/05/13 04:56:16;;;;;;;0.77;0.77;;;13.40;99.90;;;;;;4915576;29;20107;-81
2021/05/13 04:58:43;;;;;;;0.80;0.77;;;13.30;99.90;;;;;;4915530;29;20032;-81
2021/05/13 05:01:09;;;;;;;1.17;0.70;;;13.30;99.90;;;;;;4915487;29;20405;-81
2021/05/13 05:03:35;;;;;;;0.77;0.77;;;13.40;99.90;;;;;;4898174;29;20898;-81
2021/05/13 05:06:00;;;;;;;0.70;0.70;;;13.40;99.90;;;;;;4898446;29;20093;-81
2021/05/13 05:08:26;;;;;;;0.70;0.70;;;13.40;99.90;;;;;;4898239;29;20032;-81
2021/05/13 05:10:52;;;;;;;2.10;0.70;;;13.50;99.90;;;;;;4898330;29;20036;-81
2021/05/13 05:13:17;;;;;;;1.00;1.00;;;13.60;99.90;;;;;;4898372;29;20147;-81
2021/05/13 05:15:43;;;;;;;0.60;0.60;;;13.60;99.90;;;;;;4898061;29;20067;-81
2021/05/13 05:18:16;;;;;;;0.73;0.70;;;13.70;99.90;;;;;;4898085;29;20031;-81
2021/05/13 05:20:42;;;;;;;0.95;0.95;;;13.70;99.90;;;;;;4882879;29;20033;-81
2021/05/13 05:23:08;;;;;;;0.82;0.82;;;13.70;99.90;;;;;;4896270;29;20032;-81
2021/05/13 05:25:33;;;;;;;0.73;0.73;;;13.70;99.90;;;;;;4879391;29;20454;-81
2021/05/13 05:27:59;;;;;;;1.60;0.85;;;13.70;99.90;;;;;;4896295;29;20036;-81
2021/05/13 05:30:25;;;;;;;1.67;0.90;;;13.70;99.90;;;;;;4879303;29;20073;-81
2021/05/13 05:32:53;;;;;;;0.70;0.70;;;13.80;99.90;;;;;;4879164;29;20314;-81
2021/05/13 05:35:19;;;;;;;0.88;0.88;;;13.80;99.90;;;;;;4879230;29;20035;-81
2021/05/13 05:37:45;;;;;;;0.80;0.80;;;13.80;99.90;;;;;;4879300;29;20029;-81
2021/05/13 05:40:12;;;;;;;2.83;0.80;;;13.90;99.90;;;;;;4895802;29;20037;-81
2021/05/13 05:42:38;;;;;;;0.82;0.82;;;13.90;99.90;;;;;;4879121;29;20024;-81
2021/05/13 05:45:05;;;;;;;1.52;1.00;;;14.00;99.90;;;;;;4889081;29;20035;-81
2021/05/13 05:47:31;;;;;;;1.40;1.30;;;14.00;99.90;;;;;;4914631;29;20024;-81
2021/05/13 05:49:56;;;;;;;1.20;1.10;;;14.00;99.90;;;;;;4897713;29;20099;-81
2021/05/13 05:52:22;;;;;;;1.70;1.60;;;14.10;99.90;;;;;;4897732;29;20035;-81
2021/05/13 05:54:48;;;;;;;1.83;1.70;;;14.10;99.90;;;;;;4897552;29;20071;-81
2021/05/13 05:57:13;;;;;;;1.40;1.30;;;14.10;99.90;;;;;;4897647;29;20028;-81
2021/05/13 05:59:39;;;;;;;2.85;2.22;;;14.20;99.90;;;;;;4897717;29;20035;-81
2021/05/13 06:02:05;;;;;;;4.30;3.03;;;14.20;99.90;;;;;;4914356;29;20024;-81
2021/05/13 06:04:34;;;;;;;3.10;2.83;;;14.30;99.90;;;;;;4914426;29;20103;-81
2021/05/13 06:07:00;;;;;;;3.67;3.38;;;14.30;99.90;;;;;;4897763;29;20182;-81
2021/05/13 06:09:26;;;;;;;3.17;2.95;;;14.40;99.90;;;;;;4897577;29;20154;-80
2021/05/13 06:11:51;;;;;;;3.35;3.10;;;14.40;99.90;;;;;;4897630;29;20244;-80
2021/05/13 06:14:17;;;;;;;6.93;3.03;;;14.40;99.90;;;;;;4897570;29;20051;-80
2021/05/13 06:16:43;;;;;;;3.38;2.67;;;14.40;99.90;;;;;;4897462;29;20396;-81
2021/05/13 06:19:09;;;;;;;3.33;3.03;;;14.40;99.90;;;;;;4897915;29;20021;-81
2021/05/13 06:21:38;;;;;;;4.13;2.65;;;14.50;99.90;;;;;;4914300;29;20452;-81
2021/05/13 06:24:08;;;;;;;3.40;3.15;;;14.50;99.90;;;;;;4914188;29;20017;-81
2021/05/13 06:26:34;;;;;;;3.85;3.55;;;14.50;99.90;;;;;;4897659;29;20043;-81
2021/05/13 06:29:00;;;;;;;4.03;3.72;;;14.50;99.90;;;;;;4897665;29;20040;-81
2021/05/13 06:31:27;;;;;;;3.60;3.25;;;14.50;99.90;;;;;;4914280;29;20107;-80
2021/05/13 06:33:52;;;;;;;8.90;3.92;;;14.60;99.90;;;;;;4897603;29;20028;-80
2021/05/13 06:36:18;;;;;;;2.90;2.70;;;14.50;99.90;;;;;;4914559;29;20043;-80
2021/05/13 06:38:44;;;;;;;3.30;3.05;;;14.60;99.90;;;;;;4917309;29;20028;-80
2021/05/13 06:41:11;;;;;;;4.63;3.55;;;14.60;99.90;;;;;;4900891;29;20056;-80
2021/05/13 06:43:37;;;;;;;2.85;2.63;;;14.70;99.90;;;;;;4900870;29;20064;-80
2021/05/13 06:46:04;;;;;;;3.55;3.25;;;14.70;99.90;;;;;;4935221;29;20527;-80
2021/05/13 06:48:31;;;;;;;4.10;3.80;;;14.70;99.90;;;;;;4919688;29;20091;-80
2021/05/13 06:50:57;;;;;;;4.35;3.95;;;14.70;99.90;;;;;;4919558;29;20032;-80
2021/05/13 06:53:23;;;;;;;4.75;3.90;;;14.80;99.90;;;;;;4919438;29;20038;-80
2021/05/13 06:55:52;;;;;;;8.55;4.57;;;14.80;99.90;;;;;;4919394;29;20036;-80
2021/05/13 06:58:22;;;;;;;6.57;4.63;;;14.80;99.90;;;;;;4919441;29;20623;-80
2021/05/13 07:00:49;;;;;;;6.45;3.33;;;14.80;99.90;;;;;;4912365;29;20396;-80
2021/05/13 07:03:15;;;;;;;7.57;3.75;;;14.80;99.90;;;;;;4925707;29;20395;-80
2021/05/13 07:05:42;;;;;;;2.97;2.78;;;14.80;99.90;;;;;;4921125;29;20362;-80
2021/05/13 07:08:09;;;;;;;3.88;3.50;;;14.80;99.90;;;;;;4919418;29;20396;-80
2021/05/13 07:10:36;;;;;;;3.60;3.30;;;14.80;99.90;;;;;;4919309;29;20024;-80
2021/05/13 07:13:03;;;;;;;4.28;3.90;;;14.90;99.90;;;;;;4936101;29;20484;-80
2021/05/13 07:15:28;;;;;;;4.97;3.90;;;14.90;99.90;;;;;;4906148;29;20052;-80
2021/05/13 07:17:54;;;;;;;3.88;3.50;;;15.00;99.90;;;;;;4918042;29;20126;-80
2021/05/13 07:20:22;;;;;;;4.88;4.20;;;15.10;99.90;;;;;;4919014;29;20501;-80
2021/05/13 07:22:49;;;;;;;4.32;3.92;;;15.10;99.90;;;;;;4919098;29;20013;-80
2021/05/13 07:25:15;;;;;;;4.80;4.40;;;15.20;99.90;;;;;;4900298;29;20119;-80
2021/05/13 07:27:41;;;;;;;5.32;4.47;;;15.20;99.90;;;;;;4900133;29;20099;-80
2021/05/13 07:30:08;;;;;;;4.00;3.60;;;15.30;99.90;;;;;;4919630;29;20388;-80
2021/05/13 07:32:34;;;;;;;2.70;2.50;;;15.40;99.90;;;;;;4897790;29;20213;-83
2021/05/13 07:34:59;;;;;;;1.77;1.67;;;15.40;99.90;;;;;;4912995;29;20070;-82
2021/05/13 07:37:25;;;;;;;3.83;1.80;;;15.50;99.90;;;;;;4917069;29;20028;-82
2021/05/13 07:39:51;;;;;;;3.30;1.83;;;15.50;99.90;;;;;;4901559;29;20032;-82
2021/05/13 07:42:17;;;;;;;2.40;2.30;;;15.50;99.90;;;;;;4903066;29;20027;-82
2021/05/13 07:44:43;;;;;;;2.40;2.20;;;15.50;99.90;;;;;;4902757;29;20130;-82
2021/05/13 07:47:10;;;;;;;3.05;2.13;;;15.60;99.90;;;;;;4913287;29;20020;-82
2021/05/13 07:49:37;;;;;;;3.72;2.13;;;15.70;99.90;;;;;;4894541;29;20036;-82
2021/05/13 07:52:03;;;;;;;2.45;1.60;;;15.70;99.90;;;;;;4895590;29;20035;-82
2021/05/13 07:54:29;;;;;;;1.73;1.63;;;15.60;99.90;;;;;;4895950;29;20057;-82
2021/05/13 07:56:55;;;;;;;2.47;2.00;;;15.60;99.90;;;;;;4895172;29;20024;-82
2021/05/13 07:59:21;;;;;;;1.65;1.55;;;15.70;99.90;;;;;;4896400;29;20035;-83
2021/05/13 08:01:47;;;;;;;1.83;1.73;;;15.80;99.90;;;;;;4920200;29;20027;-82
2021/05/13 08:04:13;;;;;;;2.20;1.70;;;15.80;99.90;;;;;;4931280;29;20054;-82
2021/05/13 08:06:41;;;;;;;2.30;1.50;;;15.80;99.90;;;;;;4915511;29;20399;-83
2021/05/13 08:09:07;;;;;;;1.48;1.40;;;15.90;99.90;;;;;;4914343;29;20032;-82
2021/05/13 08:11:33;;;;;;;2.05;1.50;;;15.90;99.90;;;;;;4914949;29;20147;-82
2021/05/13 08:13:59;;;;;;;1.30;1.20;;;16.00;99.90;;;;;;4913336;29;20510;-83
2021/05/13 08:16:25;;;;;;;2.70;1.15;;;16.00;99.90;;;;;;4894920;29;20032;-82
2021/05/13 08:18:51;;;;;;;1.23;1.13;;;16.00;99.90;;;;;;4895619;29;20111;-83
2021/05/13 08:21:17;;;;;;;1.38;1.05;;;16.00;99.90;;;;;;4895268;29;20496;-82
2021/05/13 08:23:43;;;;;;;1.33;1.00;;;16.00;99.90;;;;;;4894602;29;20388;-82
2021/05/13 08:26:08;;;;;;;1.40;1.10;;;16.10;99.90;;;;;;4912381;29;20028;-82
2021/05/13 08:28:34;;;;;;;0.90;0.90;;;16.20;99.90;;;;;;4894765;29;20504;-82
2021/05/13 08:31:00;;;;;;;0.98;0.95;;;16.20;99.90;;;;;;4895172;29;20496;-81
2021/05/13 08:33:25;;;;;;;2.95;1.20;;;16.20;99.90;;;;;;4894902;29;20032;-82
2021/05/13 08:35:51;;;;;;;2.40;1.13;;;16.30;99.90;;;;;;4894221;29;20079;-82
2021/05/13 08:38:17;;;;;;;1.20;1.13;;;16.30;99.90;;;;;;4895024;29;20052;-82
2021/05/13 08:40:43;;;;;;;1.20;1.17;;;16.40;99.90;;;;;;4894398;29;20392;-83
2021/05/13 08:43:26;;;;;;;1.20;1.08;;;16.30;99.90;;;;;;4894657;29;20027;-82
2021/05/13 08:45:52;;;;;;;2.53;1.13;;;16.30;99.90;;;;;;4907051;29;20429;-82
2021/05/13 08:48:19;;;;;;;0.98;0.98;;;16.30;99.90;;;;;;4930864;29;20509;-82
2021/05/13 08:50:45;;;;;;;0.90;0.80;;;16.40;99.90;;;;;;4913005;29;20036;-83
2021/05/13 08:53:11;;;;;;;6.22;1.02;;;16.40;99.90;;;;;;4913090;29;20028;-82
2021/05/13 08:55:37;;;;;;;2.63;1.00;;;16.50;99.90;;;;;;4913747;29;20534;-82
2021/05/13 08:58:05;;;;;;;4.95;0.90;;;16.60;99.90;;;;;;4912906;29;20024;-83
2021/05/13 09:00:31;;;;;;;1.40;0.90;;;16.60;99.90;;;;;;4930015;29;20049;-82
2021/05/13 09:02:56;;;;;;;1.65;1.02;;;16.70;99.90;;;;;;4913383;29;20756;-83
2021/05/13 09:05:23;;;;;;;0.50;0.50;;;16.80;99.90;;;;;;4929592;29;20044;-83
2021/05/13 09:07:54;;;;;;;0.85;0.63;;;16.90;99.90;;;;;;4913670;29;20090;-83
2021/05/13 09:10:22;;;;;;;1.17;0.85;;;16.80;99.90;;;;;;4930653;29;20173;-83
2021/05/13 09:12:50;;;;;;;1.30;0.80;;;16.90;99.90;;;;;;4929741;29;20035;-83
2021/05/13 09:15:19;;;;;;;4.13;0.70;;;16.80;99.90;;;;;;4901443;29;20507;-83
2021/05/13 09:17:50;;;;;;;0.95;0.63;;;16.80;99.90;;;;;;4894829;29;20130;-83
2021/05/13 09:20:25;;;;;;;0.70;0.70;;;16.70;99.90;;;;;;4893991;29;20073;-83
2021/05/13 09:22:51;;;;;;;1.08;0.98;;;16.60;99.90;;;;;;4893813;29;20036;-83
2021/05/13 09:25:17;;;;;;;1.48;1.00;;;16.80;99.90;;;;;;4893929;29;20437;-83
2021/05/13 09:27:44;;;;;;;3.70;0.95;;;16.90;99.90;;;;;;4894217;29;20052;-83
2021/05/13 09:30:18;;;;;;;4.15;1.75;;;17.00;99.90;;;;;;4910699;29;20056;-83
2021/05/13 09:32:50;;;;;;;4.00;1.85;;;17.10;99.90;;;;;;4910541;29;20024;-80
2021/05/13 09:35:32;;;;;;;2.95;1.73;;;17.10;99.90;;;;;;4910946;29;20043;-80
2021/05/13 09:38:01;;;;;;;2.17;1.70;;;17.10;99.90;;;;;;4894689;29;20119;-86
2021/05/13 09:40:36;;;;;;;7.88;1.98;;;17.00;99.90;;;;;;4900210;29;20169;-84
2021/05/13 09:43:21;;;;;;;4.32;2.00;;;17.10;99.90;;;;;;4895031;29;20055;-84
2021/05/13 09:46:00;;;;;;;3.83;2.30;;;17.10;99.90;;;;;;4901271;29;20035;-84
2021/05/13 09:48:38;;;;;;;2.63;2.05;;;17.20;99.90;;;;;;4895758;29;20036;-85
2021/05/13 09:51:30;;;;;;;8.00;2.10;;;17.30;99.90;;;;;;4908288;29;20642;-78
2021/05/13 09:54:15;;;;;;;2.20;2.00;;;17.30;99.90;;;;;;4910181;29;20320;-79
2021/05/13 09:56:46;;;;;;;4.18;2.25;;;17.30;99.90;;;;;;4904894;29;20035;-79
2021/05/13 09:59:26;;;;;;;2.28;2.08;;;17.40;99.90;;;;;;4909069;29;20063;-79
2021/05/13 10:01:58;;;;;;;3.83;2.30;;;17.40;99.90;;;;;;4910333;29;20024;-81
2021/05/13 10:04:25;;;;;;;5.30;2.53;;;17.40;99.90;;;;;;4901888;29;20131;-78
2021/05/13 10:06:52;;;;;;;4.95;2.85;;;17.40;99.90;;;;;;4910026;29;20032;-78
2021/05/13 10:09:22;;;;;;;5.40;2.85;;;17.50;99.90;;;;;;4910573;29;20035;-80
2021/05/13 10:11:53;;;;;;;8.30;3.28;;;17.60;99.90;;;;;;4910299;29;20136;-78
2021/05/13 10:14:21;;;;;;;9.50;3.10;;;17.80;99.90;;;;;;4904472;29;20455;-77
2021/05/13 10:17:00;;;;;;;3.63;2.10;;;17.80;99.90;;;;;;4915005;29;20535;-78
2021/05/13 10:19:34;;;;;;;4.55;1.58;;;17.80;99.90;;;;;;4915081;29;20464;-79
2021/05/13 10:22:21;;;;;;;12.15;2.15;;;17.80;99.90;;;;;;4899360;29;20051;-82
2021/05/13 10:24:47;;;;;;;7.80;2.50;;;17.90;99.90;;;;;;4897501;29;20089;-81
2021/05/13 10:27:21;;;;;;;3.20;1.63;;;18.00;99.90;;;;;;4913238;29;20242;-82
2021/05/13 10:29:58;;;;;;;3.17;1.30;;;18.00;99.90;;;;;;4912911;29;20060;-82
2021/05/13 10:32:33;;;;;;;3.10;0.73;;;18.10;99.90;;;;;;4912636;29;20028;-80
2021/05/13 10:35:05;;;;;;;4.15;1.92;;;18.10;99.70;;;;;;4895230;29;20020;-82
2021/05/13 10:37:41;;;;;;;3.20;2.85;;;18.10;99.90;;;;;;4896313;29;20039;-82
2021/05/13 10:40:08;;;;;;;9.63;3.15;;;18.20;99.90;;;;;;4896953;29;20024;-81
2021/05/13 10:42:35;;;;;;;6.03;3.75;;;18.30;99.90;;;;;;4914388;29;20264;-85
2021/05/13 10:45:37;;;;;;;4.13;3.00;;;18.30;99.90;;;;;;4896249;29;20027;-81
2021/05/13 10:48:14;;;;;;;2.80;2.60;;;18.50;99.90;;;;;;4873896;29;20037;-81
2021/05/13 10:50:50;;;;;;;5.65;2.58;;;18.80;99.90;;;;;;4909112;29;20044;-84
2021/05/13 10:53:39;;;;;;;8.23;2.80;;;18.80;99.90;;;;;;4897037;29;20182;-82
2021/05/13 10:56:22;;;;;;;3.40;2.50;;;18.70;99.90;;;;;;4896307;29;20032;-82
2021/05/13 10:59:01;;;;;;;8.07;2.95;;;18.70;99.90;;;;;;4896301;29;20047;-83
2021/05/13 11:01:40;;;;;;;4.75;2.97;;;18.70;99.90;;;;;;4896568;29;20327;-79
2021/05/13 11:04:24;;;;;;;6.50;3.38;;;18.60;99.90;;;;;;4895525;29;20052;-81
2021/05/13 11:06:59;;;;;;;11.27;3.70;;;18.50;99.90;;;;;;4896836;29;20063;-80
2021/05/13 11:09:40;;;;;;;3.17;2.88;;;18.50;99.90;;;;;;4913319;29;20031;-82
2021/05/13 11:12:09;;;;;;;4.80;2.97;;;18.50;99.90;;;;;;4896703;29;20083;-81
2021/05/13 11:17:59;;;;;;;5.43;2.75;;;18.40;99.90;;;;;;4894421;29;20092;-78
2021/05/13 11:20:39;;;;;;;4.75;3.15;;;18.50;99.90;;;;;;4894045;29;20033;-77
2021/05/13 11:23:25;;;;;;;5.57;2.60;;;18.40;99.90;;;;;;4893814;29;20025;-78
2021/05/13 11:25:52;;;;;;;3.88;2.30;;;18.50;99.90;;;;;;4894764;29;20340;-78
2021/05/13 11:31:28;;;;;;;4.13;3.13;;;18.60;99.90;;;;;;4890633;29;20503;-81
2021/05/13 11:33:57;;;;;;;3.47;2.85;;;18.60;99.90;;;;;;4879750;29;20025;-80
2021/05/13 11:36:38;;;;;;;6.15;2.92;;;18.60;99.90;;;;;;4897292;29;20029;-80
2021/05/13 11:39:12;;;;;;;9.63;3.28;;;18.70;99.90;;;;;;4897498;29;20029;-79
2021/05/13 11:41:41;;;;;;;9.07;4.72;;;18.70;99.90;;;;;;4880422;29;20088;-79
2021/05/13 11:44:07;;;;;;;15.93;3.60;;;18.70;99.90;;;;;;4899320;29;20017;-79
2021/05/13 11:46:38;;;;;;;4.80;3.70;;;18.80;99.90;;;;;;4916338;29;20035;-79
2021/05/13 11:49:05;;;;;;;4.45;2.97;;;19.00;99.90;;;;;;4916315;29;20075;-79
2021/05/13 11:51:33;;;;;;;5.53;2.53;;;19.00;99.90;;;;;;4915875;29;20039;-79
2021/05/13 11:54:04;;;;;;;8.85;2.70;;;19.00;99.90;;;;;;4898996;29;20084;-79
2021/05/13 11:56:32;;;;;;;2.35;1.95;;;19.00;99.90;;;;;;4899382;29;20039;-79
2021/05/13 11:59:00;;;;;;;4.13;1.95;;;19.00;99.90;;;;;;4900954;29;20038;-78
2021/05/13 12:01:31;;;;;;;4.10;2.20;;;19.00;99.90;;;;;;4918598;29;20392;-79
2021/05/13 12:03:59;;;;;;;2.37;2.17;;;19.10;99.90;;;;;;4912248;29;20049;-78
2021/05/13 12:06:26;;;;;;;4.03;2.53;;;19.10;99.90;;;;;;4896850;29;20028;-79
2021/05/13 12:08:52;;;;;;;4.13;3.42;;;19.20;99.90;;;;;;4879875;29;20484;-79
2021/05/13 12:11:28;;;;;;;9.23;3.58;;;19.20;99.90;;;;;;4896428;29;20121;-79
2021/05/13 12:13:56;;;;;;;4.82;2.88;;;19.20;99.90;;;;;;4880251;29;20090;-78
2021/05/13 12:16:27;;;;;;;6.07;3.28;;;19.30;99.90;;;;;;4915328;29;20020;-78
2021/05/13 12:18:56;;;;;;;5.78;3.30;;;19.50;99.90;;;;;;4887866;29;20120;-78
2021/05/13 12:21:23;;;;;;;4.20;2.63;;;19.60;99.90;;;;;;4879844;29;20021;-79
2021/05/13 12:23:50;;;;;;;5.47;2.88;;;19.70;99.90;;;;;;4896484;29;20044;-78
2021/05/13 12:26:30;;;;;;;13.98;2.53;;;19.90;99.90;;;;;;4896626;29;20033;-78
2021/05/13 12:28:56;;;;;;;6.43;2.40;;;20.10;97.40;;;;;;4896050;29;20035;-78
2021/05/13 12:31:27;;;;;;;2.40;1.23;;;20.30;95.80;;;;;;4896867;29;20025;-78
2021/05/13 12:33:53;;;;;;;5.27;1.57;;;20.50;95.80;;;;;;4896010;29;20029;-78
2021/05/13 12:36:19;;;;;;;3.95;1.40;;;20.70;95.00;;;;;;4895399;29;20524;-78
2021/05/13 12:38:45;;;;;;;3.55;1.40;;;20.90;96.00;;;;;;4879910;29;20128;-78
2021/05/13 12:41:25;;;;;;;2.70;1.38;;;21.00;93.50;;;;;;4896190;29;20117;-78
2021/05/13 12:44:04;;;;;;;4.97;1.75;;;21.20;93.60;;;;;;4895870;29;20081;-79
2021/05/13 12:46:29;;;;;;;2.03;1.50;;;21.40;92.30;;;;;;4895125;29;20035;-78
2021/05/13 12:48:55;;;;;;;4.05;1.70;;;21.50;91.80;;;;;;4899219;29;20028;-78
2021/05/13 12:51:24;;;;;;;2.17;1.67;;;21.60;91.60;;;;;;4879188;29;20095;-79
2021/05/13 12:53:55;;;;;;;4.60;2.15;;;21.80;92.60;;;;;;4894456;29;20037;-79
2021/05/13 12:56:31;;;;;;;4.87;2.60;;;21.90;92.10;;;;;;4883195;29;20025;-78
2021/05/13 12:59:09;;;;;;;2.47;2.13;;;21.60;91.30;;;;;;4879967;29;20080;-78
2021/05/13 13:01:37;;;;;;;2.15;2.03;;;21.40;92.60;;;;;;4879692;29;20111;-78
2021/05/13 13:04:05;;;;;;;2.63;2.10;;;21.40;92.30;;;;;;4907688;29;20123;-78
2021/05/13 13:06:32;;;;;;;2.65;1.63;;;21.40;91.20;;;;;;4922713;29;20090;-77
2021/05/13 13:08:58;;;;;;;5.57;2.47;;;21.60;92.60;;;;;;4921100;29;20039;-78